Time;durP1;ratioP1;P1;durP2;ratioP2;P2;SDS_P1;SDS_P2;PMS_P1;PMS_P2;Temp;Humidity;BMP_temperature;BMP_pressure;BME280_temperature;BME280_humidity;BME280_pressure;Samples;Min_cycle;Max_cycle;Signal;HPM_P1;HPM_P2
2021/04/24 00:01:43;;;;;;;25.33;11.90;;;;;;;;;;5074471;28;20013;-68
2021/04/24 00:04:08;;;;;;;24.83;12.00;;;;;;;;;;5073440;28;20024;-68
2021/04/24 00:06:34;;;;;;;20.42;10.98;;;;;;;;;;5074132;28;20048;-68
2021/04/24 00:09:00;;;;;;;32.17;12.52;;;;;;;;;;5073471;28;20522;-68
2021/04/24 00:11:27;;;;;;;26.08;12.30;;;;;;;;;;5073291;28;20415;-69
2021/04/24 00:13:52;;;;;;;29.63;11.25;;;;;;;;;;5074322;28;20135;-69
2021/04/24 00:16:19;;;;;;;24.05;12.00;;;;;;;;;;5074450;28;20040;-68
2021/04/24 00:18:44;;;;;;;33.45;13.25;;;;;;;;;;5072579;28;20025;-68
2021/04/24 00:21:10;;;;;;;22.27;12.45;;;;;;;;;;5073068;28;20025;-69
2021/04/24 00:23:35;;;;;;;27.10;13.23;;;;;;;;;;5074142;28;20068;-68
2021/04/24 00:26:01;;;;;;;22.65;12.00;;;;;;;;;;5072963;28;20017;-68
2021/04/24 00:28:27;;;;;;;26.67;12.32;;;;;;;;;;5072746;28;20533;-69
2021/04/24 00:30:52;;;;;;;26.00;12.73;;;;;;;;;;5072640;28;20024;-68
2021/04/24 00:33:18;;;;;;;25.58;13.18;;;;;;;;;;5074126;28;20039;-69
2021/04/24 00:35:43;;;;;;;27.95;12.55;;;;;;;;;;5073891;28;20020;-68
2021/04/24 00:38:09;;;;;;;23.77;11.90;;;;;;;;;;5073233;28;20009;-69
2021/04/24 00:40:35;;;;;;;26.02;12.88;;;;;;;;;;5072512;28;20502;-68
2021/04/24 00:43:02;;;;;;;26.55;12.93;;;;;;;;;;5073782;28;20044;-68
2021/04/24 00:45:27;;;;;;;23.85;11.15;;;;;;;;;;5072811;28;20550;-68
2021/04/24 00:47:55;;;;;;;23.45;11.32;;;;;;;;;;5072373;28;20036;-68
2021/04/24 00:50:27;;;;;;;23.42;11.55;;;;;;;;;;5073971;28;20024;-68
2021/04/24 00:52:52;;;;;;;20.35;10.93;;;;;;;;;;5072122;28;20024;-68
2021/04/24 00:55:18;;;;;;;19.25;9.63;;;;;;;;;;5055719;28;20085;-68
2021/04/24 00:57:43;;;;;;;15.93;9.60;;;;;;;;;;5072162;28;20483;-68
2021/04/24 01:00:11;;;;;;;17.35;9.10;;;;;;;;;;5074004;28;20017;-68
2021/04/24 01:02:37;;;;;;;14.30;8.48;;;;;;;;;;5073140;28;20070;-68
2021/04/24 01:05:04;;;;;;;20.42;9.32;;;;;;;;;;5072225;28;20013;-68
2021/04/24 01:07:30;;;;;;;17.00;7.72;;;;;;;;;;5071032;28;20485;-68
2021/04/24 01:09:55;;;;;;;13.65;7.97;;;;;;;;;;5071989;28;20016;-68
2021/04/24 01:12:21;;;;;;;16.73;8.77;;;;;;;;;;5072628;28;20028;-68
2021/04/24 01:14:46;;;;;;;16.00;8.35;;;;;;;;;;5072875;28;20013;-68
2021/04/24 01:17:12;;;;;;;11.93;7.30;;;;;;;;;;5073190;28;20103;-68
2021/04/24 01:19:37;;;;;;;19.55;8.00;;;;;;;;;;5072971;28;20027;-68
2021/04/24 01:22:05;;;;;;;13.95;7.18;;;;;;;;;;5072753;28;20096;-68
2021/04/24 01:24:30;;;;;;;16.55;6.95;;;;;;;;;;5072787;28;20469;-68
2021/04/24 01:26:56;;;;;;;12.52;7.15;;;;;;;;;;5070937;28;20099;-68
2021/04/24 01:29:22;;;;;;;13.25;6.80;;;;;;;;;;5072862;28;20012;-68
2021/04/24 01:31:47;;;;;;;12.98;7.13;;;;;;;;;;5071527;28;20021;-68
2021/04/24 01:34:13;;;;;;;11.60;6.53;;;;;;;;;;5071733;28;20073;-68
2021/04/24 01:36:38;;;;;;;12.90;6.68;;;;;;;;;;5071326;28;20142;-68
2021/04/24 01:39:05;;;;;;;12.57;6.60;;;;;;;;;;5072057;28;20027;-68
2021/04/24 01:41:30;;;;;;;10.13;5.45;;;;;;;;;;5071715;28;20082;-69
2021/04/24 01:43:56;;;;;;;13.30;6.22;;;;;;;;;;5071316;28;20106;-68
2021/04/24 01:46:23;;;;;;;10.60;6.20;;;;;;;;;;5071553;28;20381;-68
2021/04/24 01:48:48;;;;;;;12.18;5.60;;;;;;;;;;5071053;28;20149;-68
2021/04/24 01:51:14;;;;;;;10.57;5.75;;;;;;;;;;5071404;28;20540;-68
2021/04/24 01:53:40;;;;;;;10.40;5.63;;;;;;;;;;5071268;28;20016;-68
2021/04/24 01:56:06;;;;;;;13.63;6.65;;;;;;;;;;5072463;28;20023;-68
2021/04/24 01:58:31;;;;;;;13.15;6.78;;;;;;;;;;5072602;28;20017;-68
2021/04/24 02:00:58;;;;;;;12.65;6.05;;;;;;;;;;5072219;28;20058;-68
2021/04/24 02:03:24;;;;;;;10.55;6.15;;;;;;;;;;5072389;28;20012;-68
2021/04/24 02:05:50;;;;;;;11.38;6.03;;;;;;;;;;5054222;28;20372;-68
2021/04/24 02:08:18;;;;;;;11.43;5.72;;;;;;;;;;5053674;28;20077;-68
2021/04/24 02:10:45;;;;;;;14.23;6.15;;;;;;;;;;5072106;28;20103;-68
2021/04/24 02:13:14;;;;;;;12.27;6.35;;;;;;;;;;5071405;28;20381;-68
2021/04/24 02:15:40;;;;;;;11.50;5.57;;;;;;;;;;5071004;28;20027;-68
2021/04/24 02:18:05;;;;;;;12.70;5.95;;;;;;;;;;5072466;28;20092;-68
2021/04/24 02:20:31;;;;;;;15.07;6.22;;;;;;;;;;5071227;28;20449;-68
2021/04/24 02:22:57;;;;;;;10.65;6.72;;;;;;;;;;5071717;28;20035;-68
2021/04/24 02:25:22;;;;;;;12.65;6.43;;;;;;;;;;5075032;28;20012;-68
2021/04/24 02:27:48;;;;;;;17.00;7.70;;;;;;;;;;5074889;28;20469;-68
2021/04/24 02:30:15;;;;;;;13.30;5.85;;;;;;;;;;5075299;28;20027;-68
2021/04/24 02:32:40;;;;;;;15.68;6.68;;;;;;;;;;5076061;28;20017;-68
2021/04/24 02:35:07;;;;;;;11.02;6.32;;;;;;;;;;5074964;28;20491;-68
2021/04/24 02:37:33;;;;;;;13.85;6.82;;;;;;;;;;5075492;28;20346;-68
2021/04/24 02:39:58;;;;;;;11.10;6.47;;;;;;;;;;5074876;28;20024;-68
2021/04/24 02:42:26;;;;;;;12.52;6.22;;;;;;;;;;5076216;28;20098;-68
2021/04/24 02:44:54;;;;;;;12.50;6.43;;;;;;;;;;5075831;28;20023;-68
2021/04/24 02:47:20;;;;;;;15.10;7.28;;;;;;;;;;5075999;28;20032;-69
2021/04/24 02:49:46;;;;;;;14.80;6.68;;;;;;;;;;5074640;28;20017;-68
2021/04/24 02:52:11;;;;;;;16.40;6.90;;;;;;;;;;5075801;28;20082;-69
2021/04/24 02:54:37;;;;;;;13.85;6.57;;;;;;;;;;5075711;28;20026;-68
2021/04/24 02:57:03;;;;;;;12.55;6.10;;;;;;;;;;5074923;28;20027;-68
2021/04/24 02:59:28;;;;;;;14.63;6.75;;;;;;;;;;5075802;28;20047;-68
2021/04/24 03:01:55;;;;;;;12.90;6.68;;;;;;;;;;5074360;28;20066;-68
2021/04/24 03:04:20;;;;;;;14.43;6.63;;;;;;;;;;5074478;28;20467;-68
2021/04/24 03:06:46;;;;;;;14.95;6.47;;;;;;;;;;5074951;28;20096;-68
2021/04/24 03:09:12;;;;;;;17.20;6.50;;;;;;;;;;5074883;28;20017;-68
2021/04/24 03:11:38;;;;;;;14.40;6.78;;;;;;;;;;5074296;28;20023;-68
2021/04/24 03:14:04;;;;;;;16.80;6.80;;;;;;;;;;5074306;28;20095;-68
2021/04/24 03:16:30;;;;;;;10.85;6.45;;;;;;;;;;5075777;28;20095;-68
2021/04/24 03:18:55;;;;;;;13.55;6.93;;;;;;;;;;5073821;28;20572;-68
2021/04/24 03:21:21;;;;;;;12.90;6.80;;;;;;;;;;5073881;28;20019;-68
2021/04/24 03:23:47;;;;;;;20.08;7.00;;;;;;;;;;5057392;28;20235;-68
2021/04/24 03:26:12;;;;;;;21.70;7.53;;;;;;;;;;5075598;28;20056;-68
2021/04/24 03:28:38;;;;;;;14.52;6.97;;;;;;;;;;5073473;28;20033;-68
2021/04/24 03:31:03;;;;;;;13.75;7.05;;;;;;;;;;5073929;28;20081;-68
2021/04/24 03:33:29;;;;;;;13.30;6.40;;;;;;;;;;5075286;28;20017;-68
2021/04/24 03:35:54;;;;;;;12.07;5.85;;;;;;;;;;5074169;28;20086;-69
2021/04/24 03:38:19;;;;;;;14.98;6.78;;;;;;;;;;5074276;28;20095;-69
2021/04/24 03:40:45;;;;;;;14.23;6.72;;;;;;;;;;5073436;28;20024;-68
2021/04/24 03:43:10;;;;;;;9.38;5.32;;;;;;;;;;5073756;28;20020;-68
2021/04/24 03:45:36;;;;;;;11.88;5.95;;;;;;;;;;5074046;28;20078;-68
2021/04/24 03:48:02;;;;;;;17.08;6.15;;;;;;;;;;5074631;28;20020;-68
2021/04/24 03:50:27;;;;;;;12.95;5.97;;;;;;;;;;5073616;28;20078;-68
2021/04/24 03:52:53;;;;;;;12.80;6.07;;;;;;;;;;5074453;28;20044;-68
2021/04/24 03:55:19;;;;;;;14.68;6.47;;;;;;;;;;5075110;28;20027;-68
2021/04/24 03:57:46;;;;;;;13.63;6.63;;;;;;;;;;5073229;28;20050;-69
2021/04/24 04:00:12;;;;;;;11.43;5.72;;;;;;;;;;5073442;28;20017;-68
2021/04/24 04:02:47;;;;;;;11.00;5.82;;;;;;;;;;5073146;28;20400;-69
2021/04/24 04:05:12;;;;;;;14.93;5.88;;;;;;;;;;5074416;28;20489;-68
2021/04/24 04:07:38;;;;;;;15.38;5.90;;;;;;;;;;5073621;28;20335;-68
2021/04/24 04:10:04;;;;;;;11.88;6.45;;;;;;;;;;5056621;28;20025;-68
2021/04/24 04:12:29;;;;;;;12.93;6.10;;;;;;;;;;5074518;28;20465;-68
2021/04/24 04:14:54;;;;;;;11.68;6.72;;;;;;;;;;5074002;28;20167;-68
2021/04/24 04:17:20;;;;;;;13.68;6.60;;;;;;;;;;5073304;28;20016;-68
2021/04/24 04:19:45;;;;;;;12.82;6.40;;;;;;;;;;5074177;28;20025;-68
2021/04/24 04:22:11;;;;;;;12.63;6.70;;;;;;;;;;5073114;28;20073;-69
2021/04/24 04:24:36;;;;;;;19.20;8.05;;;;;;;;;;5074004;28;20019;-68
2021/04/24 04:27:01;;;;;;;14.90;6.53;;;;;;;;;;5072639;28;20086;-69
2021/04/24 04:29:27;;;;;;;15.02;6.47;;;;;;;;;;5074343;28;20371;-69
2021/04/24 04:31:52;;;;;;;12.18;5.82;;;;;;;;;;5072793;28;20012;-68
2021/04/24 04:34:18;;;;;;;11.73;5.80;;;;;;;;;;5072772;28;20021;-69
2021/04/24 04:36:44;;;;;;;14.63;6.55;;;;;;;;;;5072346;28;20020;-68
2021/04/24 04:39:09;;;;;;;15.32;6.55;;;;;;;;;;5073149;28;20036;-68
2021/04/24 04:41:35;;;;;;;11.82;6.65;;;;;;;;;;5073925;28;20013;-68
2021/04/24 04:44:00;;;;;;;13.45;6.97;;;;;;;;;;5073709;28;20070;-69
2021/04/24 04:46:25;;;;;;;13.65;5.90;;;;;;;;;;5071439;28;20035;-69
2021/04/24 04:48:51;;;;;;;10.52;6.07;;;;;;;;;;5072115;28;20082;-69
2021/04/24 04:51:16;;;;;;;11.07;5.85;;;;;;;;;;5073556;28;20025;-69
2021/04/24 04:53:41;;;;;;;17.58;6.68;;;;;;;;;;5072237;28;20017;-69
2021/04/24 04:56:07;;;;;;;10.73;6.50;;;;;;;;;;5073538;28;20016;-69
2021/04/24 04:58:32;;;;;;;15.35;6.57;;;;;;;;;;5055563;28;20105;-69
2021/04/24 05:00:58;;;;;;;14.95;6.63;;;;;;;;;;5073047;28;20063;-69
2021/04/24 05:03:23;;;;;;;11.48;5.53;;;;;;;;;;5073854;28;20094;-69
2021/04/24 05:05:49;;;;;;;18.90;6.25;;;;;;;;;;5072860;28;20059;-69
2021/04/24 05:08:14;;;;;;;14.40;6.68;;;;;;;;;;5072627;28;20384;-69
2021/04/24 05:10:39;;;;;;;10.52;5.82;;;;;;;;;;5072964;28;20497;-69
2021/04/24 05:13:05;;;;;;;11.43;5.63;;;;;;;;;;5073296;28;20016;-69
2021/04/24 05:15:30;;;;;;;8.90;5.43;;;;;;;;;;5073334;28;20013;-69
2021/04/24 05:17:55;;;;;;;15.82;5.97;;;;;;;;;;5072885;28;20046;-70
2021/04/24 05:20:21;;;;;;;10.70;5.80;;;;;;;;;;5073011;28;20464;-70
2021/04/24 05:22:47;;;;;;;11.52;5.55;;;;;;;;;;5071491;28;20071;-70
2021/04/24 05:25:13;;;;;;;9.20;5.75;;;;;;;;;;5071895;28;20381;-70
2021/04/24 05:27:43;;;;;;;9.30;6.00;;;;;;;;;;5072633;28;20032;-70
2021/04/24 05:30:09;;;;;;;16.55;6.60;;;;;;;;;;5073272;28;20016;-70
2021/04/24 05:32:34;;;;;;;10.93;6.18;;;;;;;;;;5054726;28;20043;-70
2021/04/24 05:35:00;;;;;;;11.30;6.28;;;;;;;;;;5072633;28;20008;-69
2021/04/24 05:37:26;;;;;;;10.80;6.45;;;;;;;;;;5054278;28;20119;-70
2021/04/24 05:39:53;;;;;;;11.02;6.63;;;;;;;;;;5071261;28;20017;-70
2021/04/24 05:42:18;;;;;;;9.60;5.72;;;;;;;;;;5072868;28;20029;-70
2021/04/24 05:44:43;;;;;;;10.80;6.80;;;;;;;;;;5072398;28;20027;-70
2021/04/24 05:47:09;;;;;;;9.40;5.35;;;;;;;;;;5071432;28;20519;-70
2021/04/24 05:49:34;;;;;;;13.63;5.70;;;;;;;;;;5072546;28;20107;-70
2021/04/24 05:52:00;;;;;;;13.10;6.35;;;;;;;;;;5054424;28;20020;-70
2021/04/24 05:54:25;;;;;;;12.18;6.75;;;;;;;;;;5071578;28;20504;-70
2021/04/24 05:56:51;;;;;;;10.30;6.28;;;;;;;;;;5072250;28;20013;-70
2021/04/24 05:59:16;;;;;;;10.75;5.90;;;;;;;;;;5071046;28;20021;-70
2021/04/24 06:01:42;;;;;;;12.98;6.60;;;;;;;;;;5071379;28;20103;-70
2021/04/24 06:04:07;;;;;;;12.70;6.85;;;;;;;;;;5072479;28;20380;-70
2021/04/24 06:06:33;;;;;;;16.63;6.70;;;;;;;;;;5071946;28;20055;-70
2021/04/24 06:08:59;;;;;;;10.65;5.80;;;;;;;;;;5070438;28;20520;-70
2021/04/24 06:11:24;;;;;;;10.38;6.38;;;;;;;;;;5072607;28;20048;-70
2021/04/24 06:13:50;;;;;;;11.38;5.97;;;;;;;;;;5054262;28;20035;-70
2021/04/24 06:16:15;;;;;;;13.43;6.35;;;;;;;;;;5072390;28;20048;-70
2021/04/24 06:18:41;;;;;;;11.55;6.25;;;;;;;;;;5072276;28;20028;-70
2021/04/24 06:21:06;;;;;;;11.50;5.97;;;;;;;;;;5072282;28;20008;-70
2021/04/24 06:23:32;;;;;;;10.82;6.50;;;;;;;;;;5072440;28;20020;-70
2021/04/24 06:25:57;;;;;;;11.63;6.00;;;;;;;;;;5072231;28;20025;-70
2021/04/24 06:28:22;;;;;;;10.45;6.90;;;;;;;;;;5054139;28;20130;-70
2021/04/24 06:30:48;;;;;;;13.80;6.47;;;;;;;;;;5070751;28;20025;-70
2021/04/24 06:33:13;;;;;;;12.32;6.90;;;;;;;;;;5072241;28;20451;-70
2021/04/24 06:35:38;;;;;;;13.85;7.45;;;;;;;;;;5072083;28;20027;-70
2021/04/24 06:38:04;;;;;;;12.23;6.50;;;;;;;;;;5071548;28;20465;-70
2021/04/24 06:40:29;;;;;;;15.57;7.30;;;;;;;;;;5070950;28;20031;-70
2021/04/24 06:42:55;;;;;;;11.32;6.82;;;;;;;;;;5071781;28;20061;-70
2021/04/24 06:45:21;;;;;;;10.98;6.75;;;;;;;;;;5071019;28;20070;-70
2021/04/24 06:47:48;;;;;;;15.05;7.43;;;;;;;;;;5071975;28;20480;-70
2021/04/24 06:50:14;;;;;;;13.70;7.72;;;;;;;;;;5070837;28;20023;-70
2021/04/24 06:52:39;;;;;;;17.25;7.43;;;;;;;;;;5070391;28;20100;-70
2021/04/24 06:55:06;;;;;;;12.45;7.88;;;;;;;;;;5070680;28;20020;-70
2021/04/24 06:57:31;;;;;;;14.77;8.23;;;;;;;;;;5072062;28;20020;-71
2021/04/24 06:59:56;;;;;;;14.95;7.97;;;;;;;;;;5070593;28;20238;-70
2021/04/24 07:02:22;;;;;;;14.45;8.00;;;;;;;;;;5072054;28;20012;-70
2021/04/24 07:04:47;;;;;;;16.70;8.20;;;;;;;;;;5070422;28;20055;-70
2021/04/24 07:07:13;;;;;;;13.15;7.85;;;;;;;;;;5070291;28;20124;-70
2021/04/24 07:09:39;;;;;;;13.55;8.32;;;;;;;;;;5054076;28;20027;-70
2021/04/24 07:12:05;;;;;;;15.60;7.85;;;;;;;;;;5057681;28;20389;-70
2021/04/24 07:14:31;;;;;;;12.50;8.18;;;;;;;;;;5075593;28;20091;-70
2021/04/24 07:16:56;;;;;;;20.98;8.20;;;;;;;;;;5073966;28;20092;-70
2021/04/24 07:19:22;;;;;;;13.70;7.28;;;;;;;;;;5074144;28;20020;-70
2021/04/24 07:21:48;;;;;;;17.15;8.23;;;;;;;;;;5075098;28;20154;-70
2021/04/24 07:24:13;;;;;;;13.82;7.13;;;;;;;;;;5074247;28;20141;-70
2021/04/24 07:26:39;;;;;;;13.20;8.40;;;;;;;;;;5073829;28;20385;-70
2021/04/24 07:29:04;;;;;;;17.00;8.10;;;;;;;;;;5073958;28;20048;-70
2021/04/24 07:31:30;;;;;;;16.13;7.70;;;;;;;;;;5074026;28;20023;-70
2021/04/24 07:33:55;;;;;;;18.05;7.40;;;;;;;;;;5075078;28;20525;-70
2021/04/24 07:36:21;;;;;;;14.30;7.32;;;;;;;;;;5075087;28;20473;-70
2021/04/24 07:38:46;;;;;;;12.43;7.47;;;;;;;;;;5074170;28;20106;-71
2021/04/24 07:41:12;;;;;;;13.23;8.32;;;;;;;;;;5075454;28;20488;-70
2021/04/24 07:43:38;;;;;;;16.63;7.82;;;;;;;;;;5073546;28;20030;-70
2021/04/24 07:46:04;;;;;;;12.00;7.22;;;;;;;;;;5056918;28;20456;-70
2021/04/24 07:48:29;;;;;;;12.48;7.28;;;;;;;;;;5075016;28;20485;-70
2021/04/24 07:50:55;;;;;;;13.98;8.05;;;;;;;;;;5074577;28;20382;-70
2021/04/24 07:53:21;;;;;;;14.80;7.22;;;;;;;;;;5074856;28;20016;-70
2021/04/24 07:55:46;;;;;;;13.70;7.70;;;;;;;;;;5073549;28;20461;-70
2021/04/24 07:58:13;;;;;;;14.73;8.20;;;;;;;;;;5073598;28;20070;-70
2021/04/24 08:00:38;;;;;;;11.75;7.72;;;;;;;;;;5074536;28;20025;-70
2021/04/24 08:03:04;;;;;;;14.93;8.18;;;;;;;;;;5073262;28;20020;-70
2021/04/24 08:05:30;;;;;;;14.63;8.05;;;;;;;;;;5074627;28;20017;-70
2021/04/24 08:07:55;;;;;;;48.72;9.70;;;;;;;;;;5073399;28;20079;-70
2021/04/24 08:10:21;;;;;;;15.85;7.40;;;;;;;;;;5074621;28;20048;-69
2021/04/24 08:12:46;;;;;;;12.68;6.45;;;;;;;;;;5073059;28;20150;-70
2021/04/24 08:15:13;;;;;;;19.02;8.20;;;;;;;;;;5074107;28;20029;-70
2021/04/24 08:17:38;;;;;;;12.35;7.55;;;;;;;;;;5073187;28;20024;-70
2021/04/24 08:20:04;;;;;;;13.75;7.10;;;;;;;;;;5073075;28;20016;-70
2021/04/24 08:22:30;;;;;;;16.00;7.32;;;;;;;;;;5073092;28;20016;-70
2021/04/24 08:24:55;;;;;;;11.90;7.15;;;;;;;;;;5073896;28;20066;-70
2021/04/24 08:27:21;;;;;;;16.13;7.32;;;;;;;;;;5072790;28;20446;-70
2021/04/24 08:29:46;;;;;;;11.25;6.45;;;;;;;;;;5072827;28;20438;-70
2021/04/24 08:32:11;;;;;;;11.50;6.65;;;;;;;;;;5074131;28;20093;-70
2021/04/24 08:34:37;;;;;;;16.83;6.70;;;;;;;;;;5073837;28;20461;-70
2021/04/24 08:37:04;;;;;;;11.27;6.68;;;;;;;;;;5073668;28;20035;-70
2021/04/24 08:39:30;;;;;;;14.40;6.72;;;;;;;;;;5072138;28;20023;-70
2021/04/24 08:41:56;;;;;;;11.60;6.38;;;;;;;;;;5072605;28;20088;-70
2021/04/24 08:44:21;;;;;;;11.27;6.70;;;;;;;;;;5073885;28;20430;-70
2021/04/24 08:46:50;;;;;;;12.65;6.13;;;;;;;;;;5073537;28;20025;-69
2021/04/24 08:49:18;;;;;;;8.77;6.18;;;;;;;;;;5073938;28;20029;-70
2021/04/24 08:51:44;;;;;;;14.23;6.78;;;;;;;;;;5073438;28;20430;-70
2021/04/24 08:54:10;;;;;;;14.80;6.55;;;;;;;;;;5072497;28;20016;-70
2021/04/24 08:56:35;;;;;;;15.23;7.38;;;;;;;;;;5072351;28;20021;-70
2021/04/24 08:59:01;;;;;;;15.02;7.45;;;;;;;;;;5073445;28;20027;-70
2021/04/24 09:01:26;;;;;;;14.75;7.13;;;;;;;;;;5072462;28;20109;-70
2021/04/24 09:03:52;;;;;;;13.10;6.82;;;;;;;;;;5073226;28;20012;-71
2021/04/24 09:06:21;;;;;;;12.35;6.47;;;;;;;;;;5073150;28;20044;-70
2021/04/24 09:08:56;;;;;;;11.30;7.03;;;;;;;;;;5071292;28;20032;-70
2021/04/24 09:11:22;;;;;;;11.15;5.70;;;;;;;;;;5073419;28;20016;-71
2021/04/24 09:13:57;;;;;;;11.93;6.63;;;;;;;;;;5072055;28;20512;-71
2021/04/24 09:16:23;;;;;;;10.57;6.85;;;;;;;;;;5073484;28;20051;-71
2021/04/24 09:18:48;;;;;;;13.60;6.40;;;;;;;;;;5071508;28;20020;-71
2021/04/24 09:21:19;;;;;;;9.98;5.65;;;;;;;;;;5055234;28;20416;-71
2021/04/24 09:23:44;;;;;;;11.07;5.88;;;;;;;;;;5073115;28;20012;-70
2021/04/24 09:26:10;;;;;;;11.35;6.30;;;;;;;;;;5071833;28;20031;-70
2021/04/24 09:28:38;;;;;;;14.10;6.72;;;;;;;;;;5072737;28;20028;-69
2021/04/24 09:31:14;;;;;;;15.05;7.30;;;;;;;;;;5072887;28;20485;-70
2021/04/24 09:33:40;;;;;;;10.30;6.47;;;;;;;;;;5072118;28;20016;-70
2021/04/24 09:36:07;;;;;;;11.32;6.05;;;;;;;;;;5072950;28;20435;-71
2021/04/24 09:38:34;;;;;;;12.88;6.43;;;;;;;;;;5071017;28;20043;-70
2021/04/24 09:41:01;;;;;;;10.98;5.93;;;;;;;;;;5072753;28;20408;-70
2021/04/24 09:43:27;;;;;;;9.15;5.50;;;;;;;;;;5072745;28;20012;-71
2021/04/24 09:45:52;;;;;;;8.73;5.60;;;;;;;;;;5071370;28;20024;-70
2021/04/24 09:48:19;;;;;;;9.63;5.78;;;;;;;;;;5054651;28;20030;-70
2021/04/24 09:50:44;;;;;;;11.07;6.07;;;;;;;;;;5072220;28;20008;-71
2021/04/24 09:53:11;;;;;;;12.55;6.32;;;;;;;;;;5071709;28;20487;-71
2021/04/24 09:55:37;;;;;;;11.95;6.47;;;;;;;;;;5072658;28;20162;-70
2021/04/24 09:58:03;;;;;;;9.75;5.95;;;;;;;;;;5071364;28;20019;-71
2021/04/24 10:00:29;;;;;;;10.73;5.90;;;;;;;;;;5071390;28;20103;-71
2021/04/24 10:02:54;;;;;;;10.82;5.93;;;;;;;;;;5070961;28;20100;-71
2021/04/24 10:05:20;;;;;;;9.75;6.22;;;;;;;;;;5072533;28;20025;-71
2021/04/24 10:07:49;;;;;;;12.57;5.57;;;;;;;;;;5070212;28;20149;-71
2021/04/24 10:10:17;;;;;;;9.77;5.38;;;;;;;;;;5072453;28;20070;-71
2021/04/24 10:12:52;;;;;;;9.13;5.10;;;;;;;;;;5070913;28;20012;-71
2021/04/24 10:15:33;;;;;;;12.05;5.20;;;;;;;;;;5072207;28;20095;-71
2021/04/24 10:17:58;;;;;;;7.25;4.68;;;;;;;;;;5070888;28;20013;-71
2021/04/24 10:20:24;;;;;;;7.28;4.85;;;;;;;;;;5072355;28;20035;-71
2021/04/24 10:22:50;;;;;;;8.85;4.50;;;;;;;;;;5072181;28;20020;-71
2021/04/24 10:25:16;;;;;;;7.25;4.90;;;;;;;;;;5072206;28;20008;-71
2021/04/24 10:27:41;;;;;;;10.45;5.75;;;;;;;;;;5070600;28;20029;-70
2021/04/24 10:30:08;;;;;;;6.63;4.38;;;;;;;;;;5070913;28;20033;-69
2021/04/24 10:32:34;;;;;;;8.75;4.85;;;;;;;;;;5071974;28;20013;-70
2021/04/24 10:34:59;;;;;;;11.13;5.38;;;;;;;;;;5072050;28;20024;-70
2021/04/24 10:37:24;;;;;;;8.98;6.03;;;;;;;;;;5071562;28;20028;-70
2021/04/24 10:39:50;;;;;;;8.30;4.93;;;;;;;;;;5071978;28;20048;-70
2021/04/24 10:42:20;;;;;;;11.15;5.55;;;;;;;;;;5072151;28;20033;-70
2021/04/24 10:44:48;;;;;;;8.23;4.70;;;;;;;;;;5074030;28;20065;-70
2021/04/24 10:47:14;;;;;;;8.27;5.00;;;;;;;;;;5075953;28;20546;-70
2021/04/24 10:49:49;;;;;;;13.57;5.75;;;;;;;;;;5075884;28;20056;-70
2021/04/24 10:52:18;;;;;;;5.68;4.50;;;;;;;;;;5075664;28;20385;-70
2021/04/24 10:54:43;;;;;;;;;;;;;;;;;;5074796;28;20077;-70
2021/04/24 10:57:18;;;;;;;11.63;5.70;;;;;;;;;;5074476;28;19904;-70
2021/04/24 10:59:53;;;;;;;14.15;6.13;;;;;;;;;;5075911;28;20105;-70
2021/04/24 11:02:19;;;;;;;11.20;6.05;;;;;;;;;;5075854;28;20023;-70
2021/04/24 11:04:46;;;;;;;10.65;5.80;;;;;;;;;;5075556;28;20016;-70
2021/04/24 11:07:15;;;;;;;9.85;5.55;;;;;;;;;;5074089;28;20054;-70
2021/04/24 11:09:40;;;;;;;8.98;5.05;;;;;;;;;;5075321;28;20016;-69
2021/04/24 11:12:09;;;;;;;15.30;6.03;;;;;;;;;;5057522;28;20111;-70
2021/04/24 11:14:35;;;;;;;9.15;5.00;;;;;;;;;;5075430;28;20461;-69
2021/04/24 11:17:00;;;;;;;8.95;5.03;;;;;;;;;;5075401;28;20074;-70
2021/04/24 11:19:35;;;;;;;7.78;4.95;;;;;;;;;;5075473;28;20035;-71
2021/04/24 11:22:10;;;;;;;6.22;4.70;;;;;;;;;;5075139;28;20012;-70
2021/04/24 11:24:36;;;;;;;9.00;4.78;;;;;;;;;;5075456;28;20532;-70
2021/04/24 11:27:01;;;;;;;10.90;5.72;;;;;;;;;;5075142;28;20065;-70
2021/04/24 11:29:37;;;;;;;10.18;5.68;;;;;;;;;;5074274;28;20108;-70
2021/04/24 11:32:06;;;;;;;11.98;5.78;;;;;;;;;;5073993;28;20025;-70
2021/04/24 11:34:33;;;;;;;7.40;5.03;;;;;;;;;;5075408;28;20055;-70
2021/04/24 11:37:20;;;;;;;11.27;5.22;;;;;;;;;;5073604;28;20028;-72
2021/04/24 11:39:56;;;;;;;14.40;5.45;;;;;;;;;;5074039;28;20473;-72
2021/04/24 11:42:31;;;;;;;8.32;5.18;;;;;;;;;;5074046;28;20027;-72
2021/04/24 11:44:56;;;;;;;10.70;5.50;;;;;;;;;;5074562;28;20407;-72
2021/04/24 11:47:32;;;;;;;7.63;4.88;;;;;;;;;;5073308;28;20103;-72
2021/04/24 11:49:58;;;;;;;9.23;5.50;;;;;;;;;;5073344;28;20544;-72
2021/04/24 11:52:23;;;;;;;7.57;4.97;;;;;;;;;;5073569;28;20111;-72
2021/04/24 11:54:51;;;;;;;7.53;4.65;;;;;;;;;;5074410;28;20047;-72
2021/04/24 11:57:18;;;;;;;7.97;5.10;;;;;;;;;;5074105;28;20016;-72
2021/04/24 11:59:44;;;;;;;9.85;5.07;;;;;;;;;;5073134;28;20380;-72
2021/04/24 12:02:14;;;;;;;10.55;5.35;;;;;;;;;;5074540;28;20017;-72
2021/04/24 12:04:39;;;;;;;10.68;5.65;;;;;;;;;;5056147;28;20350;-72
2021/04/24 12:07:05;;;;;;;9.68;4.65;;;;;;;;;;5074013;28;20096;-72
2021/04/24 12:09:30;;;;;;;12.23;5.53;;;;;;;;;;5073752;28;20016;-73
2021/04/24 12:11:56;;;;;;;8.00;4.82;;;;;;;;;;5073981;28;20084;-71
2021/04/24 12:14:22;;;;;;;8.88;4.75;;;;;;;;;;5074238;28;20368;-71
2021/04/24 12:16:48;;;;;;;10.00;4.93;;;;;;;;;;5073937;28;20020;-70
2021/04/24 12:19:21;;;;;;;9.23;4.47;;;;;;;;;;5074170;28;20094;-70
2021/04/24 12:21:58;;;;;;;5.13;3.90;;;;;;;;;;5073997;28;20013;-70
2021/04/24 12:24:24;;;;;;;8.52;4.05;;;;;;;;;;5074113;28;20052;-70
2021/04/24 12:26:50;;;;;;;8.18;4.90;;;;;;;;;;5073599;28;20055;-71
2021/04/24 12:29:36;;;;;;;9.25;5.07;;;;;;;;;;5073875;28;20075;-70
2021/04/24 12:32:14;;;;;;;9.15;6.30;;;;;;;;;;5071848;28;20107;-70
2021/04/24 12:34:41;;;;;;;8.70;5.18;;;;;;;;;;5073857;28;20044;-69
2021/04/24 12:37:09;;;;;;;10.82;5.50;;;;;;;;;;5073790;28;20012;-70
2021/04/24 12:39:36;;;;;;;9.43;5.32;;;;;;;;;;5072974;28;20470;-70
2021/04/24 12:42:04;;;;;;;8.40;5.30;;;;;;;;;;5073809;28;20012;-70
2021/04/24 12:44:30;;;;;;;12.38;5.47;;;;;;;;;;5073800;28;20157;-70
2021/04/24 12:46:56;;;;;;;8.32;5.40;;;;;;;;;;5071940;28;20027;-70
2021/04/24 12:49:21;;;;;;;12.23;5.50;;;;;;;;;;5073567;28;20025;-70
2021/04/24 12:52:06;;;;;;;14.68;6.05;;;;;;;;;;5073492;28;20104;-70
2021/04/24 12:54:31;;;;;;;20.33;5.90;;;;;;;;;;5073509;28;20111;-70
2021/04/24 12:57:10;;;;;;;9.45;5.05;;;;;;;;;;5073315;28;20104;-69
2021/04/24 12:59:37;;;;;;;10.55;5.45;;;;;;;;;;5073573;28;20059;-71
2021/04/24 13:02:02;;;;;;;13.82;5.68;;;;;;;;;;5073432;28;20024;-70
2021/04/24 13:04:28;;;;;;;8.98;5.00;;;;;;;;;;5073343;28;20020;-70
2021/04/24 13:06:54;;;;;;;16.00;6.38;;;;;;;;;;5072253;28;20048;-70
2021/04/24 13:09:30;;;;;;;15.32;5.70;;;;;;;;;;5054644;28;20020;-70
2021/04/24 13:11:56;;;;;;;9.35;4.88;;;;;;;;;;5073241;28;20103;-70
2021/04/24 13:14:24;;;;;;;10.38;5.15;;;;;;;;;;5073282;28;20021;-70
2021/04/24 13:16:50;;;;;;;7.65;4.60;;;;;;;;;;5070955;28;20052;-70
2021/04/24 13:19:17;;;;;;;11.43;5.57;;;;;;;;;;5072926;28;20102;-70
2021/04/24 13:21:44;;;;;;;8.02;5.10;;;;;;;;;;5073113;28;20024;-71
2021/04/24 13:24:11;;;;;;;10.68;4.85;;;;;;;;;;5073051;28;20162;-70
2021/04/24 13:26:39;;;;;;;11.55;5.40;;;;;;;;;;5072694;28;20020;-70
2021/04/24 13:29:09;;;;;;;10.80;5.35;;;;;;;;;;5072776;28;20024;-70
2021/04/24 13:31:34;;;;;;;10.25;5.82;;;;;;;;;;5073063;28;20021;-70
2021/04/24 13:34:00;;;;;;;8.57;5.15;;;;;;;;;;5072905;28;20523;-69
2021/04/24 13:36:25;;;;;;;18.30;6.15;;;;;;;;;;5071635;28;20020;-70
2021/04/24 13:38:59;;;;;;;11.73;5.60;;;;;;;;;;5071768;28;20012;-70
2021/04/24 13:41:24;;;;;;;8.48;5.20;;;;;;;;;;5072767;28;20021;-70
2021/04/24 13:43:49;;;;;;;15.43;5.25;;;;;;;;;;5072618;28;20082;-70
2021/04/24 13:46:19;;;;;;;8.23;4.18;;;;;;;;;;5072704;28;20066;-70
2021/04/24 13:48:45;;;;;;;6.22;4.13;;;;;;;;;;5072331;28;20032;-70
2021/04/24 13:51:10;;;;;;;7.70;4.20;;;;;;;;;;5072636;28;20362;-70
2021/04/24 13:53:35;;;;;;;12.23;4.43;;;;;;;;;;5071403;28;20043;-70
2021/04/24 13:56:01;;;;;;;7.85;4.10;;;;;;;;;;5072862;28;20017;-70
2021/04/24 13:58:26;;;;;;;7.65;4.38;;;;;;;;;;5072701;28;20024;-71
2021/04/24 14:00:52;;;;;;;10.05;4.28;;;;;;;;;;5072413;28;20013;-71
2021/04/24 14:03:17;;;;;;;10.82;4.65;;;;;;;;;;5072344;28;20362;-70
2021/04/24 14:05:43;;;;;;;6.57;4.30;;;;;;;;;;5071159;28;20020;-70
2021/04/24 14:08:09;;;;;;;6.13;4.13;;;;;;;;;;5071698;28;20127;-70
2021/04/24 14:10:34;;;;;;;6.32;3.72;;;;;;;;;;5072271;28;20101;-70
2021/04/24 14:13:00;;;;;;;13.55;5.32;;;;;;;;;;5072346;28;20020;-70
2021/04/24 14:15:25;;;;;;;10.32;5.20;;;;;;;;;;5072397;28;20024;-69
2021/04/24 14:17:51;;;;;;;12.68;5.95;;;;;;;;;;5072067;28;20020;-69
2021/04/24 14:20:17;;;;;;;9.55;4.45;;;;;;;;;;5072025;28;20074;-70
2021/04/24 14:22:42;;;;;;;10.68;4.70;;;;;;;;;;5072127;28;20020;-70
2021/04/24 14:25:09;;;;;;;7.70;4.10;;;;;;;;;;5072220;28;20090;-70
2021/04/24 14:27:35;;;;;;;8.60;4.07;;;;;;;;;;5070933;28;20154;-70